sensor_id;sensor_type;location;lat;lon;timestamp;P1;durP1;ratioP1;P2;durP2;ratioP2
71790;SDS011;59638;52.126;5.434;2023-11-21T00:02:22;16.48;;;1.67;;
71790;SDS011;59638;52.126;5.434;2023-11-21T00:04:50;26.93;;;1.90;;
71790;SDS011;59638;52.126;5.434;2023-11-21T00:07:16;36.17;;;2.10;;
71790;SDS011;59638;52.126;5.434;2023-11-21T00:09:43;28.60;;;1.65;;
71790;SDS011;59638;52.126;5.434;2023-11-21T00:12:10;16.33;;;1.55;;
71790;SDS011;59638;52.126;5.434;2023-11-21T00:14:36;24.30;;;1.30;;
71790;SDS011;59638;52.126;5.434;2023-11-21T00:17:04;11.07;;;1.27;;
71790;SDS011;59638;52.126;5.434;2023-11-21T00:19:32;4.30;;;1.30;;
71790;SDS011;59638;52.126;5.434;2023-11-21T00:21:59;9.80;;;1.55;;
71790;SDS011;59638;52.126;5.434;2023-11-21T00:24:26;28.83;;;1.88;;
71790;SDS011;59638;52.126;5.434;2023-11-21T00:26:52;9.50;;;1.73;;
71790;SDS011;59638;52.126;5.434;2023-11-21T00:29:19;7.03;;;1.43;;
71790;SDS011;59638;52.126;5.434;2023-11-21T00:31:45;11.55;;;1.45;;
71790;SDS011;59638;52.126;5.434;2023-11-21T00:34:12;12.98;;;1.55;;
71790;SDS011;59638;52.126;5.434;2023-11-21T00:36:39;19.38;;;1.77;;
71790;SDS011;59638;52.126;5.434;2023-11-21T00:39:06;51.50;;;2.88;;
71790;SDS011;59638;52.126;5.434;2023-11-21T00:41:33;17.67;;;2.17;;
71790;SDS011;59638;52.126;5.434;2023-11-21T00:44:00;24.45;;;2.53;;
71790;SDS011;59638;52.126;5.434;2023-11-21T00:46:27;11.50;;;2.75;;
71790;SDS011;59638;52.126;5.434;2023-11-21T00:48:55;28.92;;;2.47;;
71790;SDS011;59638;52.126;5.434;2023-11-21T00:51:22;26.80;;;3.63;;
71790;SDS011;59638;52.126;5.434;2023-11-21T00:53:48;13.13;;;2.03;;
71790;SDS011;59638;52.126;5.434;2023-11-21T00:56:15;14.88;;;2.35;;
71790;SDS011;59638;52.126;5.434;2023-11-21T00:58:42;30.40;;;1.92;;
71790;SDS011;59638;52.126;5.434;2023-11-21T01:01:10;40.28;;;2.10;;
71790;SDS011;59638;52.126;5.434;2023-11-21T01:03:36;10.98;;;1.98;;
71790;SDS011;59638;52.126;5.434;2023-11-21T01:06:03;8.53;;;1.87;;
71790;SDS011;59638;52.126;5.434;2023-11-21T01:08:30;24.92;;;2.45;;
71790;SDS011;59638;52.126;5.434;2023-11-21T01:10:57;9.93;;;1.83;;
71790;SDS011;59638;52.126;5.434;2023-11-21T01:13:24;8.43;;;1.30;;
71790;SDS011;59638;52.126;5.434;2023-11-21T01:15:54;11.50;;;1.30;;
71790;SDS011;59638;52.126;5.434;2023-11-21T01:18:20;8.87;;;2.10;;
71790;SDS011;59638;52.126;5.434;2023-11-21T01:20:47;14.10;;;2.15;;
71790;SDS011;59638;52.126;5.434;2023-11-21T01:23:13;26.88;;;2.92;;
71790;SDS011;59638;52.126;5.434;2023-11-21T01:25:40;22.95;;;2.33;;
71790;SDS011;59638;52.126;5.434;2023-11-21T01:28:06;6.38;;;1.60;;
71790;SDS011;59638;52.126;5.434;2023-11-21T01:30:33;11.53;;;1.50;;
71790;SDS011;59638;52.126;5.434;2023-11-21T01:32:59;3.28;;;1.00;;
71790;SDS011;59638;52.126;5.434;2023-11-21T01:35:26;6.88;;;1.05;;
71790;SDS011;59638;52.126;5.434;2023-11-21T01:37:52;3.88;;;1.33;;
71790;SDS011;59638;52.126;5.434;2023-11-21T01:40:19;8.43;;;1.10;;
71790;SDS011;59638;52.126;5.434;2023-11-21T01:42:47;2.07;;;0.80;;
71790;SDS011;59638;52.126;5.434;2023-11-21T01:45:14;12.10;;;1.38;;
71790;SDS011;59638;52.126;5.434;2023-11-21T01:47:41;5.90;;;1.40;;
71790;SDS011;59638;52.126;5.434;2023-11-21T01:50:12;3.22;;;1.38;;
71790;SDS011;59638;52.126;5.434;2023-11-21T01:52:42;2.63;;;1.13;;
71790;SDS011;59638;52.126;5.434;2023-11-21T01:55:10;2.15;;;0.95;;
71790;SDS011;59638;52.126;5.434;2023-11-21T01:57:43;2.58;;;1.13;;
71790;SDS011;59638;52.126;5.434;2023-11-21T02:00:11;4.28;;;1.38;;
71790;SDS011;59638;52.126;5.434;2023-11-21T02:02:45;2.30;;;1.42;;
71790;SDS011;59638;52.126;5.434;2023-11-21T02:05:14;2.92;;;1.67;;
71790;SDS011;59638;52.126;5.434;2023-11-21T02:07:43;3.43;;;1.53;;
71790;SDS011;59638;52.126;5.434;2023-11-21T02:10:10;3.80;;;1.48;;
71790;SDS011;59638;52.126;5.434;2023-11-21T02:12:41;3.97;;;1.40;;
71790;SDS011;59638;52.126;5.434;2023-11-21T02:15:08;4.38;;;1.55;;
71790;SDS011;59638;52.126;5.434;2023-11-21T02:17:41;2.95;;;1.50;;
71790;SDS011;59638;52.126;5.434;2023-11-21T02:20:12;7.23;;;2.13;;
71790;SDS011;59638;52.126;5.434;2023-11-21T02:22:41;5.78;;;1.73;;
71790;SDS011;59638;52.126;5.434;2023-11-21T02:25:09;3.58;;;2.05;;
71790;SDS011;59638;52.126;5.434;2023-11-21T02:27:35;5.32;;;2.40;;
71790;SDS011;59638;52.126;5.434;2023-11-21T02:30:02;4.13;;;1.48;;
71790;SDS011;59638;52.126;5.434;2023-11-21T02:32:30;2.90;;;1.50;;
71790;SDS011;59638;52.126;5.434;2023-11-21T02:34:57;3.13;;;1.52;;
71790;SDS011;59638;52.126;5.434;2023-11-21T02:37:27;4.22;;;2.60;;
71790;SDS011;59638;52.126;5.434;2023-11-21T02:39:53;5.28;;;2.38;;
71790;SDS011;59638;52.126;5.434;2023-11-21T02:42:20;6.70;;;2.92;;
71790;SDS011;59638;52.126;5.434;2023-11-21T02:44:46;4.60;;;2.47;;
71790;SDS011;59638;52.126;5.434;2023-11-21T02:47:12;4.60;;;2.70;;
71790;SDS011;59638;52.126;5.434;2023-11-21T02:49:39;4.13;;;2.75;;
71790;SDS011;59638;52.126;5.434;2023-11-21T02:52:06;3.67;;;2.78;;
71790;SDS011;59638;52.126;5.434;2023-11-21T02:54:33;4.13;;;2.05;;
71790;SDS011;59638;52.126;5.434;2023-11-21T02:57:02;4.83;;;2.27;;
71790;SDS011;59638;52.126;5.434;2023-11-21T02:59:29;8.18;;;2.30;;
71790;SDS011;59638;52.126;5.434;2023-11-21T03:01:55;6.13;;;3.20;;
71790;SDS011;59638;52.126;5.434;2023-11-21T03:04:23;6.65;;;1.77;;
71790;SDS011;59638;52.126;5.434;2023-11-21T03:06:49;4.68;;;2.05;;
71790;SDS011;59638;52.126;5.434;2023-11-21T03:09:16;3.45;;;2.53;;
71790;SDS011;59638;52.126;5.434;2023-11-21T03:11:42;4.90;;;2.65;;
71790;SDS011;59638;52.126;5.434;2023-11-21T03:14:09;5.07;;;2.60;;
71790;SDS011;59638;52.126;5.434;2023-11-21T03:16:35;3.47;;;2.45;;
71790;SDS011;59638;52.126;5.434;2023-11-21T03:19:01;5.43;;;2.35;;
71790;SDS011;59638;52.126;5.434;2023-11-21T03:21:28;3.67;;;2.90;;
71790;SDS011;59638;52.126;5.434;2023-11-21T03:23:55;6.07;;;2.40;;
71790;SDS011;59638;52.126;5.434;2023-11-21T03:26:21;4.35;;;2.53;;
71790;SDS011;59638;52.126;5.434;2023-11-21T03:28:48;8.65;;;2.90;;
71790;SDS011;59638;52.126;5.434;2023-11-21T03:31:15;10.82;;;2.78;;
71790;SDS011;59638;52.126;5.434;2023-11-21T03:33:43;4.27;;;2.70;;
71790;SDS011;59638;52.126;5.434;2023-11-21T03:36:10;5.07;;;3.00;;
71790;SDS011;59638;52.126;5.434;2023-11-21T03:38:36;9.38;;;2.92;;
71790;SDS011;59638;52.126;5.434;2023-11-21T03:41:04;3.50;;;2.53;;
71790;SDS011;59638;52.126;5.434;2023-11-21T03:43:31;4.55;;;2.30;;
71790;SDS011;59638;52.126;5.434;2023-11-21T03:45:57;9.90;;;2.50;;
71790;SDS011;59638;52.126;5.434;2023-11-21T03:48:23;4.30;;;2.35;;
71790;SDS011;59638;52.126;5.434;2023-11-21T03:50:50;3.88;;;2.45;;
71790;SDS011;59638;52.126;5.434;2023-11-21T03:53:16;7.70;;;2.88;;
71790;SDS011;59638;52.126;5.434;2023-11-21T03:55:43;5.25;;;2.58;;
71790;SDS011;59638;52.126;5.434;2023-11-21T03:58:09;6.75;;;2.58;;
71790;SDS011;59638;52.126;5.434;2023-11-21T04:00:36;5.05;;;2.25;;
71790;SDS011;59638;52.126;5.434;2023-11-21T04:03:02;9.40;;;2.20;;
71790;SDS011;59638;52.126;5.434;2023-11-21T04:05:29;10.90;;;2.92;;
71790;SDS011;59638;52.126;5.434;2023-11-21T04:07:56;5.72;;;2.25;;
71790;SDS011;59638;52.126;5.434;2023-11-21T04:10:22;6.43;;;3.08;;
71790;SDS011;59638;52.126;5.434;2023-11-21T04:12:49;10.90;;;3.03;;
71790;SDS011;59638;52.126;5.434;2023-11-21T04:15:15;5.20;;;2.53;;
71790;SDS011;59638;52.126;5.434;2023-11-21T04:17:42;8.15;;;2.47;;
71790;SDS011;59638;52.126;5.434;2023-11-21T04:20:08;7.22;;;3.20;;
71790;SDS011;59638;52.126;5.434;2023-11-21T04:22:36;6.13;;;2.13;;
71790;SDS011;59638;52.126;5.434;2023-11-21T04:25:10;11.95;;;2.88;;
71790;SDS011;59638;52.126;5.434;2023-11-21T04:27:42;5.82;;;3.22;;
71790;SDS011;59638;52.126;5.434;2023-11-21T04:30:10;5.53;;;2.78;;
71790;SDS011;59638;52.126;5.434;2023-11-21T04:32:37;7.47;;;2.53;;
71790;SDS011;59638;52.126;5.434;2023-11-21T04:35:05;6.57;;;3.28;;
71790;SDS011;59638;52.126;5.434;2023-11-21T04:37:32;3.17;;;2.55;;
71790;SDS011;59638;52.126;5.434;2023-11-21T04:39:58;6.68;;;3.00;;
71790;SDS011;59638;52.126;5.434;2023-11-21T04:42:25;6.63;;;2.80;;
71790;SDS011;59638;52.126;5.434;2023-11-21T04:44:51;9.05;;;2.92;;
71790;SDS011;59638;52.126;5.434;2023-11-21T04:47:18;5.40;;;3.67;;
71790;SDS011;59638;52.126;5.434;2023-11-21T04:49:46;5.75;;;2.65;;
71790;SDS011;59638;52.126;5.434;2023-11-21T04:52:15;11.75;;;3.38;;
71790;SDS011;59638;52.126;5.434;2023-11-21T04:54:42;6.13;;;2.85;;
71790;SDS011;59638;52.126;5.434;2023-11-21T04:57:09;5.80;;;3.08;;
71790;SDS011;59638;52.126;5.434;2023-11-21T04:59:35;6.38;;;3.67;;
71790;SDS011;59638;52.126;5.434;2023-11-21T05:02:02;7.18;;;3.60;;
71790;SDS011;59638;52.126;5.434;2023-11-21T05:04:29;11.85;;;3.83;;
71790;SDS011;59638;52.126;5.434;2023-11-21T05:06:55;5.15;;;3.05;;
71790;SDS011;59638;52.126;5.434;2023-11-21T05:09:22;9.18;;;3.60;;
71790;SDS011;59638;52.126;5.434;2023-11-21T05:11:49;6.03;;;3.38;;
71790;SDS011;59638;52.126;5.434;2023-11-21T05:14:16;11.60;;;3.35;;
71790;SDS011;59638;52.126;5.434;2023-11-21T05:16:42;5.88;;;3.38;;
71790;SDS011;59638;52.126;5.434;2023-11-21T05:19:09;9.23;;;3.50;;
71790;SDS011;59638;52.126;5.434;2023-11-21T05:21:36;12.43;;;3.83;;
71790;SDS011;59638;52.126;5.434;2023-11-21T05:24:02;11.05;;;4.25;;
71790;SDS011;59638;52.126;5.434;2023-11-21T05:26:29;8.57;;;3.50;;
71790;SDS011;59638;52.126;5.434;2023-11-21T05:28:55;12.57;;;3.53;;
71790;SDS011;59638;52.126;5.434;2023-11-21T05:31:22;6.78;;;3.50;;
71790;SDS011;59638;52.126;5.434;2023-11-21T05:33:48;6.20;;;3.65;;
71790;SDS011;59638;52.126;5.434;2023-11-21T05:36:15;9.05;;;3.25;;
71790;SDS011;59638;52.126;5.434;2023-11-21T05:38:41;8.20;;;3.55;;
71790;SDS011;59638;52.126;5.434;2023-11-21T05:41:08;10.13;;;2.92;;
71790;SDS011;59638;52.126;5.434;2023-11-21T05:43:37;7.32;;;3.70;;
71790;SDS011;59638;52.126;5.434;2023-11-21T05:46:03;10.25;;;3.55;;
71790;SDS011;59638;52.126;5.434;2023-11-21T05:48:30;11.98;;;3.25;;
71790;SDS011;59638;52.126;5.434;2023-11-21T05:50:57;9.30;;;3.28;;
71790;SDS011;59638;52.126;5.434;2023-11-21T05:53:25;9.40;;;3.90;;
71790;SDS011;59638;52.126;5.434;2023-11-21T05:55:51;6.43;;;3.03;;
71790;SDS011;59638;52.126;5.434;2023-11-21T05:58:18;6.65;;;3.47;;
71790;SDS011;59638;52.126;5.434;2023-11-21T06:00:44;14.05;;;3.42;;
71790;SDS011;59638;52.126;5.434;2023-11-21T06:03:11;8.27;;;3.47;;
71790;SDS011;59638;52.126;5.434;2023-11-21T06:05:38;11.05;;;3.65;;
71790;SDS011;59638;52.126;5.434;2023-11-21T06:08:05;9.90;;;3.45;;
71790;SDS011;59638;52.126;5.434;2023-11-21T06:10:32;11.40;;;3.65;;
71790;SDS011;59638;52.126;5.434;2023-11-21T06:12:59;10.15;;;2.90;;
71790;SDS011;59638;52.126;5.434;2023-11-21T06:15:29;11.35;;;3.35;;
71790;SDS011;59638;52.126;5.434;2023-11-21T06:17:56;9.30;;;3.58;;
71790;SDS011;59638;52.126;5.434;2023-11-21T06:20:23;8.05;;;3.88;;
71790;SDS011;59638;52.126;5.434;2023-11-21T06:22:50;7.10;;;3.33;;
71790;SDS011;59638;52.126;5.434;2023-11-21T06:25:17;12.63;;;3.72;;
71790;SDS011;59638;52.126;5.434;2023-11-21T06:27:44;7.65;;;3.58;;
71790;SDS011;59638;52.126;5.434;2023-11-21T06:30:14;5.57;;;3.17;;
71790;SDS011;59638;52.126;5.434;2023-11-21T06:32:42;9.68;;;3.55;;
71790;SDS011;59638;52.126;5.434;2023-11-21T06:35:13;6.10;;;3.45;;
71790;SDS011;59638;52.126;5.434;2023-11-21T06:37:39;14.15;;;4.72;;
71790;SDS011;59638;52.126;5.434;2023-11-21T06:40:06;9.20;;;3.00;;
71790;SDS011;59638;52.126;5.434;2023-11-21T06:42:33;7.70;;;3.03;;
71790;SDS011;59638;52.126;5.434;2023-11-21T06:44:59;5.22;;;3.17;;
71790;SDS011;59638;52.126;5.434;2023-11-21T06:47:29;10.02;;;3.67;;
71790;SDS011;59638;52.126;5.434;2023-11-21T06:49:57;7.00;;;3.20;;
71790;SDS011;59638;52.126;5.434;2023-11-21T06:52:25;14.37;;;3.30;;
71790;SDS011;59638;52.126;5.434;2023-11-21T06:54:52;9.68;;;3.28;;
71790;SDS011;59638;52.126;5.434;2023-11-21T06:57:18;8.35;;;3.28;;
71790;SDS011;59638;52.126;5.434;2023-11-21T06:59:44;6.13;;;3.78;;
71790;SDS011;59638;52.126;5.434;2023-11-21T07:02:11;5.28;;;3.53;;
71790;SDS011;59638;52.126;5.434;2023-11-21T07:04:38;4.53;;;2.80;;
71790;SDS011;59638;52.126;5.434;2023-11-21T07:07:05;6.38;;;3.53;;
71790;SDS011;59638;52.126;5.434;2023-11-21T07:09:33;14.05;;;3.63;;
71790;SDS011;59638;52.126;5.434;2023-11-21T07:11:59;10.52;;;2.90;;
71790;SDS011;59638;52.126;5.434;2023-11-21T07:14:25;11.73;;;3.55;;
71790;SDS011;59638;52.126;5.434;2023-11-21T07:16:52;10.67;;;3.30;;
71790;SDS011;59638;52.126;5.434;2023-11-21T07:19:19;9.60;;;2.85;;
71790;SDS011;59638;52.126;5.434;2023-11-21T07:21:46;4.75;;;2.60;;
71790;SDS011;59638;52.126;5.434;2023-11-21T07:24:12;13.90;;;2.63;;
71790;SDS011;59638;52.126;5.434;2023-11-21T07:26:39;6.78;;;2.50;;
71790;SDS011;59638;52.126;5.434;2023-11-21T07:29:05;5.37;;;3.07;;
71790;SDS011;59638;52.126;5.434;2023-11-21T07:31:32;8.82;;;2.88;;
71790;SDS011;59638;52.126;5.434;2023-11-21T07:34:02;9.07;;;2.63;;
71790;SDS011;59638;52.126;5.434;2023-11-21T07:36:28;9.23;;;2.72;;
71790;SDS011;59638;52.126;5.434;2023-11-21T07:38:54;4.70;;;2.72;;
71790;SDS011;59638;52.126;5.434;2023-11-21T07:41:21;6.80;;;2.83;;
71790;SDS011;59638;52.126;5.434;2023-11-21T07:43:56;4.90;;;2.70;;
71790;SDS011;59638;52.126;5.434;2023-11-21T07:46:23;10.02;;;2.95;;
71790;SDS011;59638;52.126;5.434;2023-11-21T07:48:50;6.00;;;2.05;;
71790;SDS011;59638;52.126;5.434;2023-11-21T07:51:19;6.47;;;2.42;;
71790;SDS011;59638;52.126;5.434;2023-11-21T07:53:46;11.67;;;2.97;;
71790;SDS011;59638;52.126;5.434;2023-11-21T07:56:12;6.82;;;2.85;;
71790;SDS011;59638;52.126;5.434;2023-11-21T07:58:39;7.90;;;2.17;;
71790;SDS011;59638;52.126;5.434;2023-11-21T08:01:05;3.60;;;2.03;;
71790;SDS011;59638;52.126;5.434;2023-11-21T08:03:32;6.28;;;2.20;;
71790;SDS011;59638;52.126;5.434;2023-11-21T08:05:59;4.13;;;2.00;;
71790;SDS011;59638;52.126;5.434;2023-11-21T08:08:26;5.32;;;2.47;;
71790;SDS011;59638;52.126;5.434;2023-11-21T08:10:53;3.67;;;1.77;;
71790;SDS011;59638;52.126;5.434;2023-11-21T08:13:23;6.88;;;1.90;;
71790;SDS011;59638;52.126;5.434;2023-11-21T08:15:55;4.43;;;2.03;;
71790;SDS011;59638;52.126;5.434;2023-11-21T08:18:24;7.37;;;1.97;;
71790;SDS011;59638;52.126;5.434;2023-11-21T08:20:51;8.32;;;2.08;;
71790;SDS011;59638;52.126;5.434;2023-11-21T08:23:17;11.30;;;1.90;;
71790;SDS011;59638;52.126;5.434;2023-11-21T08:25:44;3.55;;;1.52;;
71790;SDS011;59638;52.126;5.434;2023-11-21T08:28:11;9.25;;;2.55;;
71790;SDS011;59638;52.126;5.434;2023-11-21T08:30:38;11.00;;;2.40;;
71790;SDS011;59638;52.126;5.434;2023-11-21T08:33:05;6.80;;;1.80;;
71790;SDS011;59638;52.126;5.434;2023-11-21T08:35:32;8.85;;;1.65;;
71790;SDS011;59638;52.126;5.434;2023-11-21T08:37:58;6.00;;;1.27;;
71790;SDS011;59638;52.126;5.434;2023-11-21T08:40:25;5.15;;;1.70;;
71790;SDS011;59638;52.126;5.434;2023-11-21T08:42:51;3.83;;;1.30;;
71790;SDS011;59638;52.126;5.434;2023-11-21T08:45:19;3.63;;;1.35;;
71790;SDS011;59638;52.126;5.434;2023-11-21T08:47:45;7.97;;;2.00;;
71790;SDS011;59638;52.126;5.434;2023-11-21T08:50:12;5.95;;;1.50;;
71790;SDS011;59638;52.126;5.434;2023-11-21T08:52:39;5.63;;;1.50;;
71790;SDS011;59638;52.126;5.434;2023-11-21T08:55:07;3.20;;;1.63;;
71790;SDS011;59638;52.126;5.434;2023-11-21T08:57:40;5.57;;;2.33;;
71790;SDS011;59638;52.126;5.434;2023-11-21T09:00:07;4.80;;;2.38;;
71790;SDS011;59638;52.126;5.434;2023-11-21T09:02:38;3.45;;;2.00;;
71790;SDS011;59638;52.126;5.434;2023-11-21T09:05:11;3.55;;;2.55;;
71790;SDS011;59638;52.126;5.434;2023-11-21T09:07:38;5.20;;;2.97;;
71790;SDS011;59638;52.126;5.434;2023-11-21T09:10:07;7.07;;;2.90;;
71790;SDS011;59638;52.126;5.434;2023-11-21T09:12:35;5.35;;;2.40;;
71790;SDS011;59638;52.126;5.434;2023-11-21T09:15:06;6.72;;;3.92;;
71790;SDS011;59638;52.126;5.434;2023-11-21T09:17:33;5.38;;;3.50;;
71790;SDS011;59638;52.126;5.434;2023-11-21T09:20:03;8.33;;;3.80;;
71790;SDS011;59638;52.126;5.434;2023-11-21T09:22:32;4.82;;;3.72;;
71790;SDS011;59638;52.126;5.434;2023-11-21T09:24:59;13.90;;;3.83;;
71790;SDS011;59638;52.126;5.434;2023-11-21T09:27:25;7.13;;;4.13;;
71790;SDS011;59638;52.126;5.434;2023-11-21T09:29:52;10.40;;;4.32;;
71790;SDS011;59638;52.126;5.434;2023-11-21T09:32:19;9.20;;;4.40;;
71790;SDS011;59638;52.126;5.434;2023-11-21T09:34:50;7.10;;;4.57;;
71790;SDS011;59638;52.126;5.434;2023-11-21T09:37:17;7.00;;;3.55;;
71790;SDS011;59638;52.126;5.434;2023-11-21T09:39:43;12.48;;;5.03;;
71790;SDS011;59638;52.126;5.434;2023-11-21T09:42:11;8.02;;;4.32;;
71790;SDS011;59638;52.126;5.434;2023-11-21T09:47:21;8.80;;;4.80;;
71790;SDS011;59638;52.126;5.434;2023-11-21T09:49:48;9.75;;;4.68;;
71790;SDS011;59638;52.126;5.434;2023-11-21T09:52:28;11.10;;;4.03;;
71790;SDS011;59638;52.126;5.434;2023-11-21T09:54:55;5.85;;;3.92;;
71790;SDS011;59638;52.126;5.434;2023-11-21T09:57:25;7.40;;;3.47;;
71790;SDS011;59638;52.126;5.434;2023-11-21T09:59:51;11.13;;;4.20;;
71790;SDS011;59638;52.126;5.434;2023-11-21T10:02:26;6.07;;;4.43;;
71790;SDS011;59638;52.126;5.434;2023-11-21T10:04:58;6.90;;;3.72;;
71790;SDS011;59638;52.126;5.434;2023-11-21T10:07:26;7.95;;;4.13;;
71790;SDS011;59638;52.126;5.434;2023-11-21T10:09:54;13.03;;;3.97;;
71790;SDS011;59638;52.126;5.434;2023-11-21T10:12:22;4.88;;;3.88;;
71790;SDS011;59638;52.126;5.434;2023-11-21T10:14:50;9.57;;;3.70;;
71790;SDS011;59638;52.126;5.434;2023-11-21T10:17:19;7.22;;;4.32;;
71790;SDS011;59638;52.126;5.434;2023-11-21T10:19:47;8.40;;;4.63;;
71790;SDS011;59638;52.126;5.434;2023-11-21T10:22:16;6.33;;;3.20;;
71790;SDS011;59638;52.126;5.434;2023-11-21T10:24:43;8.35;;;3.63;;
71790;SDS011;59638;52.126;5.434;2023-11-21T10:27:19;6.03;;;3.30;;
71790;SDS011;59638;52.126;5.434;2023-11-21T10:29:45;7.05;;;3.90;;
71790;SDS011;59638;52.126;5.434;2023-11-21T10:32:12;7.50;;;3.17;;
71790;SDS011;59638;52.126;5.434;2023-11-21T10:34:38;9.87;;;3.13;;
71790;SDS011;59638;52.126;5.434;2023-11-21T10:37:10;5.95;;;3.45;;
71790;SDS011;59638;52.126;5.434;2023-11-21T10:39:38;8.55;;;3.22;;
71790;SDS011;59638;52.126;5.434;2023-11-21T10:42:07;4.65;;;3.17;;
71790;SDS011;59638;52.126;5.434;2023-11-21T10:44:35;4.97;;;2.35;;
71790;SDS011;59638;52.126;5.434;2023-11-21T10:47:02;9.97;;;3.43;;
71790;SDS011;59638;52.126;5.434;2023-11-21T10:49:29;8.65;;;3.90;;
71790;SDS011;59638;52.126;5.434;2023-11-21T10:51:56;5.28;;;2.80;;
71790;SDS011;59638;52.126;5.434;2023-11-21T10:54:23;6.25;;;2.95;;
71790;SDS011;59638;52.126;5.434;2023-11-21T10:56:59;5.03;;;2.88;;
71790;SDS011;59638;52.126;5.434;2023-11-21T10:59:28;8.53;;;2.70;;
71790;SDS011;59638;52.126;5.434;2023-11-21T11:01:58;4.72;;;2.15;;
71790;SDS011;59638;52.126;5.434;2023-11-21T11:04:27;4.90;;;2.33;;
71790;SDS011;59638;52.126;5.434;2023-11-21T11:06:54;4.30;;;2.38;;
71790;SDS011;59638;52.126;5.434;2023-11-21T11:09:23;3.40;;;2.05;;
71790;SDS011;59638;52.126;5.434;2023-11-21T11:11:50;6.83;;;2.63;;
71790;SDS011;59638;52.126;5.434;2023-11-21T11:14:17;6.43;;;3.35;;
71790;SDS011;59638;52.126;5.434;2023-11-21T11:16:45;7.82;;;3.75;;
71790;SDS011;59638;52.126;5.434;2023-11-21T11:19:13;4.68;;;3.35;;
71790;SDS011;59638;52.126;5.434;2023-11-21T11:27:02;6.57;;;2.85;;
71790;SDS011;59638;52.126;5.434;2023-11-21T11:29:52;5.10;;;3.15;;
71790;SDS011;59638;52.126;5.434;2023-11-21T11:32:43;4.60;;;2.55;;
71790;SDS011;59638;52.126;5.434;2023-11-21T11:35:17;6.82;;;3.55;;
71790;SDS011;59638;52.126;5.434;2023-11-21T11:37:49;6.10;;;3.33;;
71790;SDS011;59638;52.126;5.434;2023-11-21T11:40:16;7.57;;;3.33;;
71790;SDS011;59638;52.126;5.434;2023-11-21T11:42:55;5.18;;;3.28;;
71790;SDS011;59638;52.126;5.434;2023-11-21T11:45:24;8.98;;;3.45;;
71790;SDS011;59638;52.126;5.434;2023-11-21T11:47:57;6.13;;;3.90;;
71790;SDS011;59638;52.126;5.434;2023-11-21T11:50:25;10.20;;;3.97;;
71790;SDS011;59638;52.126;5.434;2023-11-21T11:52:53;8.57;;;4.55;;
71790;SDS011;59638;52.126;5.434;2023-11-21T11:55:21;7.10;;;4.45;;
71790;SDS011;59638;52.126;5.434;2023-11-21T12:02:52;10.00;;;4.57;;
71790;SDS011;59638;52.126;5.434;2023-11-21T12:05:23;7.90;;;4.57;;
71790;SDS011;59638;52.126;5.434;2023-11-21T12:07:50;9.30;;;4.43;;
71790;SDS011;59638;52.126;5.434;2023-11-21T12:10:21;5.88;;;3.55;;
71790;SDS011;59638;52.126;5.434;2023-11-21T12:12:53;9.32;;;4.28;;
71790;SDS011;59638;52.126;5.434;2023-11-21T12:15:21;10.80;;;5.10;;
71790;SDS011;59638;52.126;5.434;2023-11-21T12:17:49;10.95;;;5.22;;
71790;SDS011;59638;52.126;5.434;2023-11-21T12:20:18;10.23;;;4.57;;
71790;SDS011;59638;52.126;5.434;2023-11-21T12:22:46;7.22;;;4.40;;
71790;SDS011;59638;52.126;5.434;2023-11-21T12:25:18;7.68;;;4.78;;
71790;SDS011;59638;52.126;5.434;2023-11-21T12:27:51;12.93;;;5.13;;
71790;SDS011;59638;52.126;5.434;2023-11-21T12:30:19;10.25;;;4.63;;
71790;SDS011;59638;52.126;5.434;2023-11-21T12:32:51;7.65;;;4.70;;
71790;SDS011;59638;52.126;5.434;2023-11-21T12:35:20;13.02;;;5.65;;
71790;SDS011;59638;52.126;5.434;2023-11-21T12:37:48;11.43;;;5.40;;
71790;SDS011;59638;52.126;5.434;2023-11-21T12:40:15;6.63;;;5.00;;
71790;SDS011;59638;52.126;5.434;2023-11-21T12:42:47;12.35;;;6.10;;
71790;SDS011;59638;52.126;5.434;2023-11-21T12:45:21;10.20;;;5.20;;
71790;SDS011;59638;52.126;5.434;2023-11-21T12:47:59;10.18;;;5.68;;
71790;SDS011;59638;52.126;5.434;2023-11-21T12:50:29;8.10;;;4.50;;
71790;SDS011;59638;52.126;5.434;2023-11-21T12:53:01;11.33;;;5.60;;
71790;SDS011;59638;52.126;5.434;2023-11-21T12:55:32;11.63;;;5.63;;
71790;SDS011;59638;52.126;5.434;2023-11-21T12:58:04;12.23;;;5.78;;
71790;SDS011;59638;52.126;5.434;2023-11-21T13:00:42;8.75;;;5.88;;
71790;SDS011;59638;52.126;5.434;2023-11-21T13:03:12;10.60;;;6.07;;
71790;SDS011;59638;52.126;5.434;2023-11-21T13:05:43;11.73;;;5.50;;
71790;SDS011;59638;52.126;5.434;2023-11-21T13:08:14;8.30;;;5.03;;
71790;SDS011;59638;52.126;5.434;2023-11-21T13:10:45;7.68;;;4.30;;
71790;SDS011;59638;52.126;5.434;2023-11-21T13:13:15;7.78;;;4.30;;
71790;SDS011;59638;52.126;5.434;2023-11-21T13:15:53;10.07;;;4.32;;
71790;SDS011;59638;52.126;5.434;2023-11-21T13:18:24;6.53;;;4.00;;
71790;SDS011;59638;52.126;5.434;2023-11-21T13:20:53;7.22;;;3.83;;
71790;SDS011;59638;52.126;5.434;2023-11-21T13:23:22;7.47;;;4.15;;
71790;SDS011;59638;52.126;5.434;2023-11-21T13:25:49;6.88;;;2.75;;
71790;SDS011;59638;52.126;5.434;2023-11-21T13:28:27;5.43;;;2.58;;
71790;SDS011;59638;52.126;5.434;2023-11-21T13:30:58;2.53;;;1.30;;
71790;SDS011;59638;52.126;5.434;2023-11-21T13:33:44;2.63;;;1.25;;
71790;SDS011;59638;52.126;5.434;2023-11-21T13:36:16;4.32;;;1.80;;
71790;SDS011;59638;52.126;5.434;2023-11-21T13:38:51;3.42;;;1.08;;
71790;SDS011;59638;52.126;5.434;2023-11-21T13:41:21;2.90;;;1.13;;
71790;SDS011;59638;52.126;5.434;2023-11-21T13:43:54;2.93;;;1.07;;
71790;SDS011;59638;52.126;5.434;2023-11-21T13:46:29;2.50;;;1.52;;
71790;SDS011;59638;52.126;5.434;2023-11-21T13:49:03;3.45;;;1.52;;
71790;SDS011;59638;52.126;5.434;2023-11-21T13:51:35;4.93;;;1.60;;
71790;SDS011;59638;52.126;5.434;2023-11-21T13:54:11;4.65;;;2.17;;
71790;SDS011;59638;52.126;5.434;2023-11-21T13:56:37;6.15;;;2.58;;
71790;SDS011;59638;52.126;5.434;2023-11-21T13:59:06;4.55;;;2.55;;
71790;SDS011;59638;52.126;5.434;2023-11-21T14:01:43;5.10;;;2.78;;
71790;SDS011;59638;52.126;5.434;2023-11-21T14:04:42;5.53;;;3.75;;
71790;SDS011;59638;52.126;5.434;2023-11-21T14:07:23;11.40;;;4.97;;
71790;SDS011;59638;52.126;5.434;2023-11-21T14:10:02;9.53;;;4.87;;
71790;SDS011;59638;52.126;5.434;2023-11-21T14:12:29;12.73;;;5.60;;
71790;SDS011;59638;52.126;5.434;2023-11-21T14:15:03;9.90;;;5.03;;
71790;SDS011;59638;52.126;5.434;2023-11-21T14:17:32;10.68;;;5.47;;
71790;SDS011;59638;52.126;5.434;2023-11-21T14:19:59;11.65;;;5.45;;
71790;SDS011;59638;52.126;5.434;2023-11-21T14:22:27;15.57;;;5.23;;
71790;SDS011;59638;52.126;5.434;2023-11-21T14:24:54;6.70;;;4.45;;
71790;SDS011;59638;52.126;5.434;2023-11-21T14:27:24;5.28;;;3.38;;
71790;SDS011;59638;52.126;5.434;2023-11-21T14:29:51;7.97;;;4.47;;
71790;SDS011;59638;52.126;5.434;2023-11-21T14:32:18;9.95;;;5.38;;
71790;SDS011;59638;52.126;5.434;2023-11-21T14:34:45;8.68;;;3.97;;
71790;SDS011;59638;52.126;5.434;2023-11-21T14:37:13;11.07;;;5.10;;
71790;SDS011;59638;52.126;5.434;2023-11-21T14:39:40;11.65;;;5.43;;
71790;SDS011;59638;52.126;5.434;2023-11-21T14:42:11;11.30;;;5.50;;
71790;SDS011;59638;52.126;5.434;2023-11-21T14:44:37;7.93;;;4.47;;
71790;SDS011;59638;52.126;5.434;2023-11-21T14:47:07;15.03;;;5.33;;
71790;SDS011;59638;52.126;5.434;2023-11-21T14:49:42;9.77;;;5.63;;
71790;SDS011;59638;52.126;5.434;2023-11-21T14:52:23;11.65;;;5.75;;
71790;SDS011;59638;52.126;5.434;2023-11-21T14:55:00;12.27;;;6.03;;
71790;SDS011;59638;52.126;5.434;2023-11-21T14:57:46;7.43;;;4.90;;
71790;SDS011;59638;52.126;5.434;2023-11-21T15:00:17;11.07;;;5.70;;
71790;SDS011;59638;52.126;5.434;2023-11-21T15:03:00;10.65;;;6.15;;
71790;SDS011;59638;52.126;5.434;2023-11-21T15:05:27;11.35;;;5.50;;